Terminal Aerodrome Forecast
Issued by NWS Tulsa, OK

Home | Current Version | Previous Version | Text Only | Print | Product List | Glossary On
Versions: 1 2 3 4 5 6 7 8 9 10 11 12 13
000
FTUS44 KTSA 301700
TAFFSM
TAF
KFSM 301739Z 3018/3118 12004KT 3SM -RA OVC025
      TEMPO 3018/3022 1SM +RA BKN015
     FM302200 07005KT 2SM RA OVC025
      TEMPO 3022/3102 1SM +RA BKN015
     FM310200 07005KT 2SM RA BR OVC015=

USA.gov is the U.S. government's official web portal to all federal, state and local government web resources and services.